Time;durP1;ratioP1;P1;durP2;ratioP2;P2;SDS_P1;SDS_P2;PMS_P1;PMS_P2;Temp;Humidity;BMP_temperature;BMP_pressure;BME280_temperature;BME280_humidity;BME280_pressure;Samples;Min_cycle;Max_cycle;Signal;HPM_P1;HPM_P2
2022/05/22 00:00:24;;;;;;;3.20;0.90;;;13.50;87.50;;;;;;4972158;28;20030;-74
2022/05/22 00:02:50;;;;;;;3.85;0.88;;;13.50;87.80;;;;;;4970330;28;20043;-74
2022/05/22 00:05:18;;;;;;;4.20;1.02;;;13.50;87.70;;;;;;4971935;28;20042;-74
2022/05/22 00:07:46;;;;;;;2.40;1.00;;;13.50;88.00;;;;;;4974785;28;20098;-74
2022/05/22 00:10:13;;;;;;;1.55;1.02;;;13.50;88.00;;;;;;4962712;28;20391;-74
2022/05/22 00:12:40;;;;;;;5.50;0.85;;;13.50;87.90;;;;;;4965489;28;20133;-73
2022/05/22 00:15:06;;;;;;;2.95;0.93;;;13.50;87.70;;;;;;4975808;28;20734;-74
2022/05/22 00:17:32;;;;;;;1.88;0.70;;;13.50;87.80;;;;;;4970869;28;20019;-73
2022/05/22 00:19:58;;;;;;;2.22;0.60;;;13.50;88.10;;;;;;4971080;28;20482;-73
2022/05/22 00:22:24;;;;;;;6.38;1.10;;;13.50;88.10;;;;;;4972446;28;20049;-74
2022/05/22 00:24:50;;;;;;;4.13;1.25;;;13.50;88.20;;;;;;4956642;28;20034;-73
2022/05/22 00:27:16;;;;;;;3.60;1.20;;;13.50;88.40;;;;;;4970416;28;20038;-74
2022/05/22 00:29:42;;;;;;;3.30;0.90;;;13.50;87.90;;;;;;4949450;28;20033;-74
2022/05/22 00:32:08;;;;;;;4.05;0.98;;;13.50;88.10;;;;;;4963078;28;20030;-73
2022/05/22 00:34:36;;;;;;;1.20;0.73;;;13.50;87.90;;;;;;4956186;28;20430;-74
2022/05/22 00:37:03;;;;;;;2.70;1.02;;;13.50;87.60;;;;;;4945846;28;20030;-74
2022/05/22 00:39:29;;;;;;;1.90;0.73;;;13.50;87.70;;;;;;4973284;28;20034;-74
2022/05/22 00:41:57;;;;;;;3.97;1.00;;;13.40;87.60;;;;;;4954205;28;20054;-73
2022/05/22 00:44:22;;;;;;;2.97;0.90;;;13.50;87.80;;;;;;4951674;28;20037;-74
2022/05/22 00:46:49;;;;;;;1.33;0.98;;;13.40;87.80;;;;;;4963807;28;20031;-74
2022/05/22 00:49:23;;;;;;;2.70;0.90;;;13.40;87.80;;;;;;4953572;28;20038;-74
2022/05/22 00:51:55;;;;;;;2.42;1.00;;;13.50;87.60;;;;;;4973616;28;20038;-75
2022/05/22 00:54:56;;;;;;;2.15;0.75;;;13.40;88.00;;;;;;4958849;28;20034;-74
2022/05/22 00:57:34;;;;;;;1.75;0.88;;;13.40;88.10;;;;;;4977994;28;20030;-74
2022/05/22 01:00:06;;;;;;;4.45;1.00;;;13.30;87.80;;;;;;4970476;28;20113;-73
2022/05/22 01:03:26;;;;;;;4.28;1.00;;;13.30;87.70;;;;;;4966742;28;20038;-74
2022/05/22 01:05:18;;;;;;;2.97;1.00;;;13.20;87.60;;;;;;4967462;28;20027;-74
2022/05/22 01:07:45;;;;;;;1.58;0.73;;;13.10;88.00;;;;;;4975512;28;20370;-74
2022/05/22 01:10:11;;;;;;;2.22;0.85;;;13.00;88.00;;;;;;4961309;28;20509;-74
2022/05/22 01:12:41;;;;;;;4.15;1.13;;;13.00;88.60;;;;;;4961794;28;20069;-74
2022/05/22 01:15:07;;;;;;;5.18;1.00;;;12.90;88.80;;;;;;4974431;28;20685;-74
2022/05/22 01:17:46;;;;;;;3.70;1.20;;;12.80;89.20;;;;;;4951248;28;20041;-74
2022/05/22 01:20:15;;;;;;;4.43;1.10;;;12.70;89.80;;;;;;4950546;28;20070;-74
2022/05/22 01:22:40;;;;;;;3.30;0.77;;;12.60;90.00;;;;;;4966225;28;20034;-74
2022/05/22 01:25:08;;;;;;;1.88;1.00;;;12.60;90.00;;;;;;4957834;28;20023;-72
2022/05/22 01:27:35;;;;;;;3.70;0.88;;;12.60;90.10;;;;;;4961951;28;20043;-73
2022/05/22 01:30:11;;;;;;;1.77;1.00;;;12.60;90.20;;;;;;4953020;28;20509;-72
2022/05/22 01:32:39;;;;;;;3.55;1.00;;;12.70;90.30;;;;;;4956694;28;20027;-72
2022/05/22 01:35:08;;;;;;;2.40;1.02;;;12.80;90.30;;;;;;4955865;28;20108;-73
2022/05/22 01:37:35;;;;;;;2.25;1.05;;;12.80;90.30;;;;;;4953274;28;20025;-73
2022/05/22 01:40:04;;;;;;;3.50;1.08;;;12.90;90.30;;;;;;4952194;28;20031;-73
2022/05/22 01:42:31;;;;;;;4.63;1.42;;;12.90;90.20;;;;;;4956642;28;20026;-74
2022/05/22 01:44:59;;;;;;;3.78;1.00;;;12.90;90.00;;;;;;4951324;28;20541;-73
2022/05/22 01:47:25;;;;;;;4.15;1.30;;;13.00;90.10;;;;;;4964620;28;20026;-73
2022/05/22 01:49:51;;;;;;;5.95;1.48;;;13.00;90.00;;;;;;4950760;28;20026;-73
2022/05/22 01:52:18;;;;;;;4.40;1.40;;;13.00;90.00;;;;;;4961351;28;20039;-73
2022/05/22 01:54:44;;;;;;;0.80;0.57;;;13.00;90.10;;;;;;4952249;28;20030;-73
2022/05/22 01:57:09;;;;;;;3.03;0.93;;;13.00;90.00;;;;;;4953322;28;20077;-73
2022/05/22 01:59:35;;;;;;;2.95;0.82;;;13.00;89.60;;;;;;4959188;28;20025;-73
2022/05/22 02:02:17;;;;;;;3.58;0.90;;;13.00;89.20;;;;;;4960642;28;20054;-73
2022/05/22 02:04:43;;;;;;;5.70;1.40;;;13.10;89.30;;;;;;4949250;28;20126;-73
2022/05/22 02:09:54;;;;;;;2.85;0.80;;;13.20;89.10;;;;;;4953742;28;20022;-73
2022/05/22 02:12:23;;;;;;;6.55;1.30;;;13.20;89.10;;;;;;4958763;28;20120;-73
2022/05/22 02:14:48;;;;;;;2.83;1.10;;;13.20;88.90;;;;;;4970760;28;20721;-73
2022/05/22 02:17:16;;;;;;;4.38;1.13;;;13.20;88.50;;;;;;4949604;28;20030;-73
2022/05/22 02:19:48;;;;;;;4.88;1.08;;;13.20;88.80;;;;;;4948746;28;20030;-73
2022/05/22 02:22:25;;;;;;;2.10;0.95;;;13.20;88.90;;;;;;4960531;28;20072;-73
2022/05/22 02:24:53;;;;;;;4.78;1.00;;;13.10;89.00;;;;;;4957872;28;20035;-73
2022/05/22 02:27:19;;;;;;;3.17;0.95;;;13.10;89.30;;;;;;4955582;28;20034;-73
2022/05/22 02:29:47;;;;;;;3.20;1.00;;;13.00;89.40;;;;;;4958581;28;20031;-73
2022/05/22 02:32:13;;;;;;;2.75;0.77;;;12.90;89.70;;;;;;4958950;28;20034;-72
2022/05/22 02:34:40;;;;;;;2.13;0.80;;;12.90;90.00;;;;;;4960244;28;20839;-73
2022/05/22 02:37:06;;;;;;;5.82;1.20;;;12.90;90.10;;;;;;4956051;28;20101;-73
2022/05/22 02:39:32;;;;;;;3.28;1.00;;;12.80;90.10;;;;;;4961615;28;20033;-73
2022/05/22 02:42:05;;;;;;;4.55;1.27;;;12.80;90.10;;;;;;4956486;28;20784;-73
2022/05/22 02:44:32;;;;;;;5.32;1.40;;;12.70;90.10;;;;;;4960414;28;20804;-73
2022/05/22 02:46:58;;;;;;;3.67;0.80;;;12.70;90.20;;;;;;4961525;28;20027;-73
2022/05/22 02:49:24;;;;;;;8.90;1.25;;;12.60;90.30;;;;;;4956976;28;20041;-73
2022/05/22 02:51:50;;;;;;;2.08;0.82;;;12.60;90.50;;;;;;4951583;28;20038;-73
2022/05/22 02:54:16;;;;;;;5.40;0.95;;;12.60;90.60;;;;;;4959961;28;20057;-73
2022/05/22 02:56:52;;;;;;;4.38;1.35;;;12.50;90.80;;;;;;4953699;28;20054;-73
2022/05/22 02:59:38;;;;;;;3.50;1.00;;;12.50;91.00;;;;;;4952842;28;20030;-73
2022/05/22 03:02:11;;;;;;;4.07;1.45;;;12.40;90.90;;;;;;4961513;28;20041;-73
2022/05/22 03:04:37;;;;;;;2.58;0.95;;;12.40;91.00;;;;;;4970974;28;20042;-73
2022/05/22 03:07:11;;;;;;;3.75;1.40;;;12.40;91.00;;;;;;4955737;28;20042;-73
2022/05/22 03:09:41;;;;;;;5.05;1.10;;;12.40;91.00;;;;;;4952971;28;20113;-73
2022/05/22 03:12:16;;;;;;;4.95;1.30;;;12.30;91.30;;;;;;4957954;28;20041;-73
2022/05/22 03:14:46;;;;;;;3.42;1.10;;;12.30;91.10;;;;;;4975013;28;20033;-73
2022/05/22 03:17:12;;;;;;;2.35;1.08;;;12.30;91.10;;;;;;4977496;28;20033;-73
2022/05/22 03:19:51;;;;;;;5.13;1.15;;;12.30;91.10;;;;;;4955674;28;20089;-73
2022/05/22 03:22:18;;;;;;;4.15;1.35;;;12.30;91.20;;;;;;4965416;28;20038;-73
2022/05/22 03:24:44;;;;;;;4.95;1.10;;;12.30;91.30;;;;;;4960237;28;20058;-73
2022/05/22 03:27:13;;;;;;;3.80;1.10;;;12.20;91.40;;;;;;4958563;28;20038;-73
2022/05/22 03:29:40;;;;;;;2.72;1.02;;;12.20;91.60;;;;;;4961402;28;20422;-73
2022/05/22 03:32:07;;;;;;;2.80;1.10;;;12.20;91.50;;;;;;4962213;28;20027;-73
2022/05/22 03:34:35;;;;;;;3.13;1.10;;;12.10;91.60;;;;;;4963786;28;20022;-73
2022/05/22 03:37:02;;;;;;;4.78;1.23;;;12.10;91.60;;;;;;4950583;28;20022;-73
2022/05/22 03:39:28;;;;;;;3.50;0.98;;;12.20;91.80;;;;;;4951471;28;20027;-73
2022/05/22 03:41:54;;;;;;;1.73;1.10;;;12.10;91.90;;;;;;4956360;28;20027;-73
2022/05/22 03:44:23;;;;;;;3.20;1.38;;;12.20;91.60;;;;;;4975679;28;20030;-73
2022/05/22 03:46:48;;;;;;;6.55;1.15;;;12.20;91.70;;;;;;4975646;28;20494;-73
2022/05/22 03:49:17;;;;;;;2.80;1.30;;;12.20;91.70;;;;;;4957233;28;20129;-73
2022/05/22 03:51:46;;;;;;;6.43;1.27;;;12.20;91.70;;;;;;4953123;28;20031;-73
2022/05/22 03:54:15;;;;;;;5.43;1.10;;;12.20;91.60;;;;;;4955579;28;20061;-73
2022/05/22 03:56:43;;;;;;;3.30;1.10;;;12.10;91.60;;;;;;4951912;28;20076;-73
2022/05/22 03:59:19;;;;;;;2.93;1.20;;;12.10;91.60;;;;;;4961611;28;20027;-73
2022/05/22 04:01:44;;;;;;;3.60;1.30;;;12.20;91.70;;;;;;4960487;28;20069;-73
2022/05/22 04:04:10;;;;;;;5.72;1.10;;;12.10;91.90;;;;;;4959924;28;20045;-72
2022/05/22 04:06:36;;;;;;;4.70;1.40;;;12.10;91.90;;;;;;4958853;28;20026;-71
2022/05/22 04:09:02;;;;;;;6.13;1.10;;;12.20;91.90;;;;;;4953347;28;20525;-72
2022/05/22 04:11:48;;;;;;;3.63;1.00;;;12.20;91.90;;;;;;4966146;28;20039;-74
2022/05/22 04:14:18;;;;;;;6.13;1.35;;;12.20;91.90;;;;;;4949590;28;20138;-73
2022/05/22 04:16:50;;;;;;;2.67;1.20;;;12.30;91.90;;;;;;4962042;28;20026;-72
2022/05/22 04:19:17;;;;;;;3.80;1.27;;;12.30;91.90;;;;;;4972023;28;20274;-72
2022/05/22 04:21:44;;;;;;;2.53;1.08;;;12.40;91.90;;;;;;4962049;28;20057;-71
2022/05/22 04:27:07;;;;;;;6.05;1.25;;;12.50;91.90;;;;;;4958454;28;20439;-72
2022/05/22 04:29:35;;;;;;;9.48;1.70;;;12.60;91.80;;;;;;4970482;28;20299;-71
2022/05/22 04:32:01;;;;;;;5.60;1.27;;;12.60;91.70;;;;;;4978475;28;20033;-71
2022/05/22 04:34:37;;;;;;;6.72;1.50;;;12.70;91.60;;;;;;4956483;28;20043;-71
2022/05/22 04:37:11;;;;;;;4.78;1.30;;;12.80;91.60;;;;;;4974339;28;20034;-72
2022/05/22 04:39:41;;;;;;;4.22;1.30;;;12.80;91.40;;;;;;4961171;28;20027;-71
2022/05/22 04:42:07;;;;;;;6.15;1.50;;;12.80;91.30;;;;;;4967303;28;20049;-71
2022/05/22 04:44:33;;;;;;;3.58;1.48;;;12.80;91.30;;;;;;4970731;28;20027;-71
2022/05/22 04:47:22;;;;;;;3.42;1.63;;;12.80;91.30;;;;;;4964984;28;20046;-72
2022/05/22 04:50:24;;;;;;;2.75;1.30;;;12.80;91.30;;;;;;4967177;28;20046;-72
2022/05/22 04:53:14;;;;;;;9.35;1.58;;;12.80;91.30;;;;;;4974486;28;20149;-73
2022/05/22 04:56:01;;;;;;;6.70;1.60;;;12.90;91.30;;;;;;4959732;28;20575;-71
2022/05/22 04:58:32;;;;;;;5.00;1.33;;;12.90;91.20;;;;;;4949504;28;20141;-71
2022/05/22 05:01:08;;;;;;;7.03;1.40;;;13.00;91.10;;;;;;4954644;28;20041;-74
2022/05/22 05:03:39;;;;;;;7.55;1.77;;;13.10;91.10;;;;;;4953223;28;20133;-72
2022/05/22 05:06:05;;;;;;;5.43;1.67;;;13.20;90.60;;;;;;4954614;28;20161;-72
2022/05/22 05:08:33;;;;;;;8.82;1.90;;;13.40;90.60;;;;;;4955814;28;20149;-71
2022/05/22 05:11:13;;;;;;;5.85;1.55;;;13.50;90.30;;;;;;4954667;28;20053;-72
2022/05/22 05:13:49;;;;;;;5.25;1.35;;;13.70;90.10;;;;;;4949425;28;20609;-71
2022/05/22 05:16:16;;;;;;;10.55;1.65;;;13.90;89.50;;;;;;4959229;28;20138;-72
2022/05/22 05:18:47;;;;;;;7.35;1.88;;;14.20;88.10;;;;;;4951531;28;20066;-72
2022/05/22 05:21:15;;;;;;;8.70;2.50;;;14.30;87.60;;;;;;4961489;28;20038;-72
2022/05/22 05:23:43;;;;;;;9.23;1.80;;;14.60;86.50;;;;;;4958949;28;20034;-72
2022/05/22 05:26:17;;;;;;;3.90;1.70;;;15.00;84.40;;;;;;4967819;28;20034;-72
2022/05/22 05:28:44;;;;;;;9.05;1.73;;;15.40;83.00;;;;;;4945059;28;20019;-72
2022/05/22 05:31:12;;;;;;;6.40;1.70;;;15.50;82.50;;;;;;4951220;28;20525;-72
2022/05/22 05:33:40;;;;;;;3.67;1.23;;;15.60;81.60;;;;;;4959990;28;20022;-72
2022/05/22 05:36:10;;;;;;;6.70;1.83;;;15.60;81.20;;;;;;4973392;28;20137;-73
2022/05/22 05:38:55;;;;;;;6.03;1.80;;;15.60;81.60;;;;;;4975047;28;20394;-72
2022/05/22 05:41:38;;;;;;;4.82;1.25;;;15.60;81.20;;;;;;4953407;28;20046;-71
2022/05/22 05:44:08;;;;;;;13.43;1.55;;;15.90;81.00;;;;;;4951320;28;20045;-72
2022/05/22 05:46:45;;;;;;;4.70;1.60;;;16.00;80.20;;;;;;4952643;28;20052;-72
2022/05/22 05:49:12;;;;;;;3.63;1.40;;;16.00;80.30;;;;;;4949385;28;20045;-72
2022/05/22 05:51:41;;;;;;;7.70;1.50;;;16.10;80.40;;;;;;4961803;28;20027;-71
2022/05/22 05:54:07;;;;;;;9.35;1.50;;;16.30;79.50;;;;;;4954788;28;20883;-72
2022/05/22 05:56:52;;;;;;;5.07;1.42;;;16.50;78.20;;;;;;4975393;28;20069;-72
2022/05/22 05:59:42;;;;;;;6.38;1.88;;;16.40;77.30;;;;;;4952660;28;20031;-72
2022/05/22 06:02:19;;;;;;;8.32;1.80;;;16.40;76.80;;;;;;4957380;28;20046;-71
2022/05/22 06:04:45;;;;;;;6.00;1.48;;;16.50;76.80;;;;;;4949457;28;20030;-72
2022/05/22 06:07:10;;;;;;;6.57;1.42;;;16.40;76.90;;;;;;4975128;28;20046;-72
2022/05/22 06:09:37;;;;;;;7.32;1.88;;;16.40;77.30;;;;;;4953819;28;20096;-71
2022/05/22 06:12:22;;;;;;;7.88;2.53;;;16.50;77.20;;;;;;4973971;28;20141;-71
2022/05/22 06:15:01;;;;;;;4.53;1.30;;;16.40;77.50;;;;;;4954537;28;20019;-72
2022/05/22 06:17:30;;;;;;;9.65;1.73;;;16.50;76.70;;;;;;4953658;28;20084;-71
2022/05/22 06:19:57;;;;;;;7.93;1.70;;;16.60;76.60;;;;;;4957844;28;20022;-71
2022/05/22 06:22:26;;;;;;;7.78;1.50;;;16.60;76.60;;;;;;4953332;28;20041;-72
2022/05/22 06:24:53;;;;;;;8.75;2.17;;;16.70;76.50;;;;;;4975942;28;20446;-71
2022/05/22 06:27:20;;;;;;;7.50;1.77;;;16.80;75.90;;;;;;4973821;28;20039;-72
2022/05/22 06:30:04;;;;;;;5.63;1.65;;;16.90;75.80;;;;;;4951906;28;20034;-72
2022/05/22 06:32:39;;;;;;;6.43;1.40;;;16.80;75.10;;;;;;4955929;28;20050;-71
2022/05/22 06:35:14;;;;;;;4.38;1.50;;;16.80;75.40;;;;;;4953780;28;20038;-71
2022/05/22 06:37:54;;;;;;;7.15;1.30;;;17.00;75.50;;;;;;4955161;28;20498;-72
2022/05/22 06:40:42;;;;;;;6.38;1.48;;;17.10;74.80;;;;;;4959304;28;20070;-71
2022/05/22 06:43:46;;;;;;;7.50;1.63;;;17.30;74.30;;;;;;4951554;28;20039;-71
2022/05/22 06:46:33;;;;;;;8.45;1.50;;;17.40;73.60;;;;;;4962377;28;20035;-72
2022/05/22 06:49:17;;;;;;;9.23;1.45;;;17.40;73.00;;;;;;4974596;28;20049;-71
2022/05/22 06:51:58;;;;;;;7.32;1.35;;;17.30;73.50;;;;;;4957612;28;20042;-71
2022/05/22 06:54:43;;;;;;;11.38;1.30;;;17.60;73.30;;;;;;4974260;28;20796;-71
2022/05/22 06:57:33;;;;;;;9.18;1.67;;;17.90;71.50;;;;;;4958706;28;20612;-71
2022/05/22 07:00:18;;;;;;;10.50;1.67;;;18.10;71.30;;;;;;4959497;28;20929;-72
2022/05/22 07:02:47;;;;;;;6.55;1.20;;;18.20;70.50;;;;;;4968607;28;20042;-71
2022/05/22 07:05:39;;;;;;;8.80;1.88;;;18.60;70.60;;;;;;4958902;28;20041;-71
2022/05/22 07:08:33;;;;;;;6.90;1.17;;;18.80;68.20;;;;;;4959659;28;20122;-71
2022/05/22 07:14:22;;;;;;;5.40;1.42;;;18.30;68.10;;;;;;4960164;28;20038;-71
2022/05/22 07:17:24;;;;;;;9.35;1.27;;;18.20;68.70;;;;;;4918672;29;20043;-72
2022/05/22 07:20:05;;;;;;;6.90;1.38;;;18.50;68.90;;;;;;4949742;28;20514;-71
2022/05/22 07:22:43;;;;;;;7.45;1.20;;;18.70;67.90;;;;;;4970287;28;20126;-72
2022/05/22 07:25:27;;;;;;;5.13;1.08;;;18.80;67.60;;;;;;4975360;28;20048;-72
2022/05/22 07:28:14;;;;;;;5.78;1.30;;;18.80;66.70;;;;;;4959033;28;20655;-71
2022/05/22 07:31:21;;;;;;;9.60;1.40;;;18.90;66.40;;;;;;4971486;28;20069;-71
2022/05/22 07:34:06;;;;;;;4.60;1.50;;;19.20;65.70;;;;;;4971588;28;20054;-72
2022/05/22 07:37:00;;;;;;;4.90;1.30;;;19.20;64.60;;;;;;4973639;28;20057;-72
2022/05/22 07:39:45;;;;;;;8.07;1.40;;;19.20;65.10;;;;;;4957265;28;20034;-72
2022/05/22 07:42:30;;;;;;;8.88;1.30;;;19.30;64.60;;;;;;4961664;28;20037;-71
2022/05/22 07:45:15;;;;;;;6.47;1.20;;;19.60;63.40;;;;;;4977665;28;20052;-72
2022/05/22 07:48:07;;;;;;;5.25;1.63;;;19.90;63.40;;;;;;4977824;28;20034;-72
2022/05/22 07:50:37;;;;;;;5.13;1.35;;;20.20;61.50;;;;;;4952900;28;20399;-69
2022/05/22 07:53:22;;;;;;;5.13;1.50;;;20.20;61.40;;;;;;4962051;28;20030;-68
2022/05/22 07:56:07;;;;;;;5.93;1.17;;;20.30;62.10;;;;;;4974533;28;20311;-72
2022/05/22 07:58:46;;;;;;;6.00;1.20;;;20.10;62.40;;;;;;4957881;28;20022;-72
2022/05/22 08:01:11;;;;;;;7.00;1.30;;;20.10;63.10;;;;;;4975147;28;20092;-72
2022/05/22 08:03:56;;;;;;;5.95;1.38;;;20.40;61.10;;;;;;4969605;28;20840;-72
2022/05/22 08:06:40;;;;;;;4.85;1.25;;;20.40;59.40;;;;;;4971529;28;20041;-73
2022/05/22 08:09:20;;;;;;;5.50;1.25;;;20.00;60.20;;;;;;4952791;28;20038;-70
2022/05/22 08:11:49;;;;;;;6.25;1.20;;;19.80;61.10;;;;;;4965594;28;20038;-72
2022/05/22 08:14:16;;;;;;;10.23;1.55;;;19.70;61.70;;;;;;4964111;28;20038;-70
2022/05/22 08:16:43;;;;;;;3.83;0.95;;;19.60;62.40;;;;;;4974296;28;20589;-71
2022/05/22 08:19:21;;;;;;;7.13;1.30;;;19.60;62.10;;;;;;4969563;28;20026;-72
2022/05/22 08:22:09;;;;;;;7.80;1.40;;;19.70;63.10;;;;;;4961569;28;20081;-71
2022/05/22 08:25:16;;;;;;;7.75;1.50;;;20.10;62.20;;;;;;4963490;28;20042;-71
2022/05/22 08:27:43;;;;;;;7.95;1.63;;;20.70;60.70;;;;;;4958595;28;20145;-75
2022/05/22 08:30:11;;;;;;;5.00;1.23;;;21.00;59.00;;;;;;4976107;28;20433;-72
2022/05/22 08:32:43;;;;;;;4.78;1.20;;;21.10;58.70;;;;;;4956963;28;20595;-72
2022/05/22 08:35:11;;;;;;;3.92;1.10;;;20.90;58.40;;;;;;4977052;28;20845;-72
2022/05/22 08:37:37;;;;;;;5.55;1.50;;;20.80;59.00;;;;;;4971532;28;20019;-71
2022/05/22 08:40:05;;;;;;;6.13;1.20;;;20.80;59.70;;;;;;4974488;28;20022;-72
2022/05/22 08:42:54;;;;;;;5.55;1.20;;;20.60;58.90;;;;;;4972788;28;20034;-70
2022/05/22 08:45:27;;;;;;;2.42;1.05;;;20.60;59.80;;;;;;4977631;28;20043;-70
2022/05/22 08:48:04;;;;;;;5.63;1.38;;;20.80;59.10;;;;;;4976973;28;20133;-71
2022/05/22 08:50:32;;;;;;;7.10;1.40;;;21.30;58.50;;;;;;4973193;28;20441;-71
2022/05/22 08:53:08;;;;;;;6.53;1.33;;;21.70;56.50;;;;;;4973046;28;20053;-70
2022/05/22 09:01:25;;;;;;;5.70;1.20;;;21.60;55.80;;;;;;4976839;28;20038;-71
2022/05/22 09:04:04;;;;;;;6.72;1.20;;;21.40;56.60;;;;;;4977512;28;20034;-72
2022/05/22 09:06:37;;;;;;;2.80;0.75;;;21.20;57.90;;;;;;4973594;28;20034;-74
2022/05/22 09:09:03;;;;;;;6.07;1.35;;;21.20;57.60;;;;;;4978112;28;20038;-71
2022/05/22 09:11:49;;;;;;;2.80;1.15;;;21.20;57.40;;;;;;4971530;28;20039;-71
2022/05/22 09:14:15;;;;;;;6.15;1.30;;;21.00;56.90;;;;;;4952275;28;20181;-71
2022/05/22 09:16:51;;;;;;;3.47;0.75;;;21.00;58.20;;;;;;4976255;28;20038;-72
2022/05/22 09:19:21;;;;;;;;;;;21.00;55.50;;;;;;4975592;28;20042;-71
2022/05/22 09:22:08;;;;;;;5.13;1.10;;;21.10;56.90;;;;;;4972461;28;20000;-72
2022/05/22 09:24:53;;;;;;;5.07;1.05;;;21.40;56.40;;;;;;4969160;28;20074;-72
2022/05/22 09:27:37;;;;;;;2.95;0.95;;;21.60;55.20;;;;;;4970184;28;20038;-71
2022/05/22 09:30:18;;;;;;;4.28;1.17;;;21.80;54.50;;;;;;4973160;28;20596;-72
2022/05/22 09:32:52;;;;;;;5.18;1.10;;;22.30;54.10;;;;;;4972323;28;20157;-72
2022/05/22 09:35:49;;;;;;;3.08;1.10;;;22.30;53.10;;;;;;4972669;28;20071;-72
2022/05/22 09:38:20;;;;;;;4.63;0.77;;;22.00;52.70;;;;;;4973193;28;20034;-72
2022/05/22 09:40:50;;;;;;;6.22;1.08;;;21.80;54.20;;;;;;4976808;28;20105;-72
2022/05/22 09:43:19;;;;;;;2.92;0.93;;;21.80;53.70;;;;;;4970896;28;20558;-71
2022/05/22 09:45:59;;;;;;;4.43;1.30;;;22.20;53.00;;;;;;4972897;28;20644;-73
2022/05/22 09:48:44;;;;;;;5.90;1.88;;;22.20;52.80;;;;;;4977995;28;20045;-72
2022/05/22 09:51:18;;;;;;;5.03;1.10;;;22.00;53.50;;;;;;4977572;28;20085;-72
2022/05/22 09:53:51;;;;;;;2.30;1.23;;;21.70;54.50;;;;;;4975462;28;20030;-73
2022/05/22 09:56:35;;;;;;;3.70;0.77;;;21.80;54.80;;;;;;4980202;28;20041;-73
2022/05/22 09:59:22;;;;;;;4.57;1.13;;;22.00;53.80;;;;;;4977125;28;20041;-71
2022/05/22 10:01:54;;;;;;;2.88;1.13;;;22.20;52.60;;;;;;4976089;28;20038;-72
2022/05/22 10:04:39;;;;;;;3.83;1.00;;;22.30;53.10;;;;;;4973295;28;20034;-72
2022/05/22 10:07:20;;;;;;;7.85;1.63;;;22.30;52.60;;;;;;4974983;28;20030;-71
2022/05/22 10:10:05;;;;;;;4.78;0.93;;;22.30;53.10;;;;;;4972145;28;20035;-71
2022/05/22 10:12:46;;;;;;;3.80;1.00;;;22.40;52.90;;;;;;4976552;28;20061;-72
2022/05/22 10:15:27;;;;;;;6.10;0.82;;;22.60;53.30;;;;;;4968634;28;20034;-74
2022/05/22 10:18:22;;;;;;;4.90;1.13;;;22.80;52.00;;;;;;4975835;28;20217;-70
2022/05/22 10:20:50;;;;;;;6.40;1.10;;;23.20;50.70;;;;;;4971373;28;20100;-73
2022/05/22 10:23:34;;;;;;;2.88;0.82;;;23.40;48.70;;;;;;4956237;28;20042;-72
2022/05/22 10:26:15;;;;;;;3.47;0.88;;;23.30;48.80;;;;;;4971970;28;20035;-70
2022/05/22 10:28:51;;;;;;;3.72;0.95;;;23.40;50.00;;;;;;4976139;28;20034;-72
2022/05/22 10:31:36;;;;;;;5.10;0.77;;;23.40;49.20;;;;;;4965643;28;20042;-73
2022/05/22 10:34:14;;;;;;;5.97;1.52;;;23.30;49.50;;;;;;4972480;28;20037;-73
2022/05/22 10:36:49;;;;;;;3.63;1.10;;;23.20;51.40;;;;;;4972868;28;20495;-73
2022/05/22 10:39:16;;;;;;;2.10;0.98;;;23.10;51.00;;;;;;4974524;28;20034;-71
2022/05/22 10:44:33;;;;;;;4.95;1.10;;;23.40;50.30;;;;;;4972485;28;20027;-71
2022/05/22 10:47:02;;;;;;;3.65;0.80;;;23.60;49.30;;;;;;4969238;28;20034;-72
2022/05/22 10:49:46;;;;;;;3.35;0.90;;;23.80;47.40;;;;;;4968926;28;20214;-73
2022/05/22 10:52:21;;;;;;;3.45;0.80;;;24.10;47.90;;;;;;4973037;28;20089;-73
2022/05/22 10:54:52;;;;;;;3.13;1.13;;;24.10;48.60;;;;;;4972871;28;20125;-71
2022/05/22 10:57:23;;;;;;;4.68;0.85;;;23.90;48.50;;;;;;4977443;28;20046;-73
2022/05/22 10:59:50;;;;;;;2.47;0.77;;;23.40;49.40;;;;;;4969474;28;20022;-73
2022/05/22 11:02:19;;;;;;;5.63;1.40;;;23.10;50.10;;;;;;4970625;28;20039;-73
2022/05/22 11:04:47;;;;;;;2.22;1.05;;;22.80;52.50;;;;;;4947815;28;20039;-72
2022/05/22 11:07:14;;;;;;;3.85;1.17;;;22.50;51.10;;;;;;4973906;28;20137;-73
2022/05/22 11:09:49;;;;;;;4.25;1.00;;;22.40;49.70;;;;;;4968976;28;20035;-72
2022/05/22 11:12:22;;;;;;;2.65;0.85;;;22.20;52.00;;;;;;4968356;28;20108;-72
2022/05/22 11:14:47;;;;;;;2.33;0.57;;;22.00;50.20;;;;;;4976403;28;20038;-71
2022/05/22 11:17:16;;;;;;;3.80;0.85;;;21.80;51.70;;;;;;4970472;28;20103;-72
2022/05/22 11:19:45;;;;;;;5.00;1.20;;;21.70;52.90;;;;;;4951940;28;20112;-71
2022/05/22 11:22:19;;;;;;;4.22;0.70;;;21.60;53.80;;;;;;4970662;28;20065;-72
2022/05/22 11:25:02;;;;;;;5.18;1.10;;;21.60;53.40;;;;;;4973320;28;20086;-72
2022/05/22 11:27:44;;;;;;;3.97;1.13;;;21.60;53.30;;;;;;4970149;28;20104;-71
2022/05/22 11:30:31;;;;;;;1.85;0.88;;;21.50;54.10;;;;;;4963588;28;20097;-71
2022/05/22 11:32:57;;;;;;;4.03;1.00;;;21.50;53.80;;;;;;4972444;28;20034;-76
2022/05/22 11:35:32;;;;;;;5.85;1.20;;;21.60;55.50;;;;;;4969609;28;20033;-74
2022/05/22 11:38:34;;;;;;;3.92;0.90;;;22.00;52.20;;;;;;4976150;28;20138;-74
2022/05/22 11:41:25;;;;;;;1.90;0.90;;;22.20;52.60;;;;;;4975648;28;20411;-72
2022/05/22 11:44:08;;;;;;;4.63;1.20;;;22.40;51.50;;;;;;4977916;28;20153;-76
2022/05/22 11:47:05;;;;;;;4.57;1.20;;;22.40;51.50;;;;;;4973516;28;20035;-75
2022/05/22 11:49:55;;;;;;;4.28;1.05;;;22.30;51.70;;;;;;4975639;28;20900;-74
2022/05/22 11:52:55;;;;;;;2.42;0.50;;;22.20;52.10;;;;;;4959582;28;20034;-77
2022/05/22 11:55:35;;;;;;;3.85;0.95;;;22.20;51.50;;;;;;4979075;28;20162;-77
2022/05/22 11:58:31;;;;;;;4.13;0.90;;;22.40;51.80;;;;;;4975498;28;20035;-77
2022/05/22 12:01:19;;;;;;;8.40;1.13;;;22.40;51.80;;;;;;4967979;28;20049;-76
2022/05/22 12:03:57;;;;;;;2.42;0.95;;;22.20;51.60;;;;;;4975184;28;20581;-77
2022/05/22 12:06:44;;;;;;;4.30;0.77;;;22.00;51.00;;;;;;4973026;28;20081;-77
2022/05/22 12:09:19;;;;;;;3.08;0.98;;;21.80;51.10;;;;;;4976619;28;20198;-77
2022/05/22 12:12:03;;;;;;;4.72;1.23;;;21.70;53.40;;;;;;4974837;28;20038;-76
2022/05/22 12:14:36;;;;;;;3.42;1.25;;;21.70;53.50;;;;;;4973177;28;20033;-76
2022/05/22 12:17:14;;;;;;;3.20;1.00;;;21.70;53.30;;;;;;4976030;28;20034;-77
2022/05/22 12:19:50;;;;;;;3.28;0.95;;;21.50;50.60;;;;;;4977499;28;20069;-77
2022/05/22 12:23:07;;;;;;;3.83;0.90;;;21.20;51.70;;;;;;4976394;28;20050;-77
2022/05/22 12:25:16;;;;;;;7.15;1.20;;;21.20;54.70;;;;;;4974663;28;20045;-77
2022/05/22 12:27:42;;;;;;;4.22;1.00;;;21.70;53.80;;;;;;4977571;28;20081;-77
2022/05/22 12:30:28;;;;;;;5.80;1.23;;;22.00;53.70;;;;;;4977727;28;20049;-77
2022/05/22 12:33:09;;;;;;;3.03;0.77;;;22.20;53.40;;;;;;4979396;28;20035;-76
2022/05/22 12:35:42;;;;;;;4.67;0.93;;;22.30;51.30;;;;;;4979528;28;20112;-76
2022/05/22 12:38:12;;;;;;;4.50;1.02;;;22.20;52.00;;;;;;4973442;28;20281;-77
2022/05/22 12:41:13;;;;;;;5.03;0.80;;;22.20;52.60;;;;;;4972375;28;20498;-76
2022/05/22 12:43:40;;;;;;;4.93;1.00;;;22.20;52.40;;;;;;4976358;28;20033;-76
2022/05/22 12:46:08;;;;;;;3.85;0.90;;;22.10;52.10;;;;;;4976703;28;20037;-77
2022/05/22 12:48:34;;;;;;;3.72;0.82;;;22.10;50.90;;;;;;4972217;28;20045;-77
2022/05/22 12:51:43;;;;;;;4.70;0.93;;;21.90;51.40;;;;;;4953573;28;20411;-77
2022/05/22 12:54:11;;;;;;;4.72;0.88;;;21.90;49.10;;;;;;4971099;28;20050;-77
2022/05/22 12:56:39;;;;;;;4.53;1.00;;;22.20;50.50;;;;;;4977021;28;20034;-77
2022/05/22 12:59:30;;;;;;;2.80;0.90;;;22.50;49.60;;;;;;4976575;28;20773;-77
2022/05/22 13:01:58;;;;;;;4.50;0.80;;;23.00;49.20;;;;;;4977746;28;20030;-77
2022/05/22 13:04:33;;;;;;;3.05;0.65;;;23.20;48.80;;;;;;4972190;28;20045;-77
2022/05/22 13:07:12;;;;;;;3.78;1.17;;;23.10;48.20;;;;;;4979352;28;20030;-77
2022/05/22 13:09:44;;;;;;;4.60;0.95;;;23.10;49.20;;;;;;4962204;28;20038;-78
2022/05/22 13:12:13;;;;;;;1.58;0.65;;;23.20;47.60;;;;;;4978951;28;20737;-77
2022/05/22 13:14:50;;;;;;;2.30;0.80;;;23.20;46.60;;;;;;4974739;28;20653;-77
2022/05/22 13:17:46;;;;;;;1.55;0.68;;;23.20;47.80;;;;;;4973616;28;20030;-77
2022/05/22 13:20:42;;;;;;;3.45;0.73;;;23.30;47.00;;;;;;4973115;28;20094;-78
2022/05/22 13:23:25;;;;;;;3.63;0.80;;;23.50;45.90;;;;;;4973665;28;20193;-78
2022/05/22 13:25:56;;;;;;;1.38;0.57;;;23.60;45.10;;;;;;4978633;28;20558;-78
2022/05/22 13:28:39;;;;;;;5.38;0.80;;;23.30;46.20;;;;;;4975576;28;20034;-78
2022/05/22 13:31:08;;;;;;;3.50;0.60;;;22.80;47.00;;;;;;4975699;28;20105;-77
2022/05/22 13:33:48;;;;;;;2.33;0.70;;;22.60;48.60;;;;;;4979946;28;20113;-78
2022/05/22 13:36:27;;;;;;;1.45;0.47;;;22.50;48.60;;;;;;4979679;28;20041;-77
2022/05/22 13:38:54;;;;;;;2.38;0.70;;;22.30;48.80;;;;;;4974190;28;20678;-75
2022/05/22 13:41:41;;;;;;;3.08;0.52;;;22.20;49.60;;;;;;4973296;28;20062;-76
2022/05/22 13:44:29;;;;;;;3.92;0.95;;;22.30;48.90;;;;;;4957306;28;20561;-76